CSAPA EDRT-EDFH
Flight info
| Callsign | CSAPA |
|---|---|
| Flight time | N/A |
| Altitude | 3500 |
| Route | EDRT MOSEL RIVER WHISKEY WROUTE EDFH |
| Aircraft | C152/L-V/N |
Departure
| Time | 2026-05-07 16:00 |
|---|---|
| Airport | Trier-Föhren Airfield (EDRT) |
Arrival
| Time | N/A |
|---|---|
| Airport | Frankfurt-Hahn Airport (EDFH) |
| Time | Latitude | Longitude | Altitude | Speed | Heading |
|---|---|---|---|---|---|
| 2026-05-07 15:15 | 49.86176 | 6.77949 | 668 ft | 0 kts | 73° |
| 2026-05-07 15:21 | 49.86176 | 6.77950 | 668 ft | 0 kts | 73° |
| 2026-05-07 15:22 | 49.86177 | 6.77950 | 668 ft | 0 kts | 73° |
| 2026-05-07 15:28 | 49.86177 | 6.77951 | 668 ft | 0 kts | 73° |
| 2026-05-07 15:34 | 49.86177 | 6.77952 | 668 ft | 0 kts | 73° |
| 2026-05-07 15:39 | 49.86177 | 6.77953 | 668 ft | 0 kts | 73° |
| 2026-05-07 15:41 | 49.86178 | 6.77953 | 668 ft | 0 kts | 73° |
| 2026-05-07 15:45 | 49.86178 | 6.77954 | 668 ft | 0 kts | 73° |
| 2026-05-07 15:50 | 49.86178 | 6.77955 | 668 ft | 0 kts | 73° |
| 2026-05-07 15:54 | 49.86179 | 6.77962 | 668 ft | 4 kts | 73° |
| 2026-05-07 15:54 | 49.86196 | 6.78081 | 668 ft | 14 kts | 81° |
| 2026-05-07 15:55 | 49.86212 | 6.78207 | 668 ft | 10 kts | 63° |
| 2026-05-07 15:55 | 49.86250 | 6.78278 | 668 ft | 7 kts | 46° |
| 2026-05-07 15:55 | 49.86283 | 6.78332 | 668 ft | 7 kts | 45° |
| 2026-05-07 15:55 | 49.86326 | 6.78398 | 668 ft | 10 kts | 44° |
| 2026-05-07 15:56 | 49.86377 | 6.78474 | 668 ft | 11 kts | 44° |
| 2026-05-07 15:56 | 49.86435 | 6.78560 | 668 ft | 12 kts | 44° |
| 2026-05-07 15:56 | 49.86495 | 6.78650 | 668 ft | 11 kts | 44° |
| 2026-05-07 15:56 | 49.86547 | 6.78727 | 668 ft | 8 kts | 44° |
| 2026-05-07 15:57 | 49.86578 | 6.78774 | 668 ft | 4 kts | 44° |
| 2026-05-07 15:57 | 49.86596 | 6.78801 | 668 ft | 4 kts | 44° |
| 2026-05-07 15:57 | 49.86630 | 6.78851 | 668 ft | 11 kts | 44° |
| 2026-05-07 15:57 | 49.86698 | 6.78951 | 668 ft | 14 kts | 43° |
| 2026-05-07 15:58 | 49.86754 | 6.79043 | 668 ft | 10 kts | 66° |
| 2026-05-07 15:58 | 49.86772 | 6.79162 | 668 ft | 13 kts | 78° |
| 2026-05-07 15:58 | 49.86754 | 6.79291 | 668 ft | 11 kts | 128° |
| 2026-05-07 15:58 | 49.86708 | 6.79336 | 668 ft | 9 kts | 211° |
| 2026-05-07 15:59 | 49.86575 | 6.79149 | 669 ft | 51 kts | 224° |
| 2026-05-07 15:59 | 49.86243 | 6.78624 | 749 ft | 75 kts | 227° |
| 2026-05-07 15:59 | 49.85890 | 6.78052 | 964 ft | 74 kts | 214° |
| 2026-05-07 15:59 | 49.85413 | 6.77708 | 1164 ft | 73 kts | 205° |
| 2026-05-07 16:00 | 49.84900 | 6.77380 | 1280 ft | 88 kts | 202° |
| 2026-05-07 16:00 | 49.84314 | 6.77005 | 1439 ft | 91 kts | 203° |
| 2026-05-07 16:00 | 49.83738 | 6.76644 | 1648 ft | 91 kts | 202° |
| 2026-05-07 16:00 | 49.83142 | 6.76257 | 1818 ft | 92 kts | 204° |
| 2026-05-07 16:01 | 49.82558 | 6.75860 | 2004 ft | 93 kts | 206° |
| 2026-05-07 16:01 | 49.81961 | 6.75468 | 2171 ft | 94 kts | 195° |
| 2026-05-07 16:01 | 49.81308 | 6.75478 | 2335 ft | 96 kts | 166° |
| 2026-05-07 16:01 | 49.80740 | 6.75970 | 2513 ft | 95 kts | 135° |
| 2026-05-07 16:02 | 49.80388 | 6.76831 | 2662 ft | 95 kts | 110° |
| 2026-05-07 16:02 | 49.80137 | 6.77763 | 2829 ft | 95 kts | 110° |
| 2026-05-07 16:04 | 49.85991 | 6.78233 | 668 ft | 0 kts | 45° |